Site contains unofficial IBTrACS data. Visit the IBTrACS Website to access archived data.

1896 NOT_NAMED (1896042S09063)


IBTrACS version v04r00. Visit IBTrACS website for data access.
Please direct all questions to the IBTrACS Q and A forum

Storm track - Intensity - Wind Radii - Intensity Data - Source Data - All data

Summary Information

Storm ID 1896042S09063
Start Feb 11 06Z
End Feb 21 06Z
ATCF IDs
Track status Best track data.

Storm track plot

Map of storm track

Intensity plots

No Intensity information for this storm


Radial wind information

No radial wind information for this storm


Position and Intensity Table

BASIN ISO_TIME_________ NATURE LAT LON
degrees north degrees east
SI 1896-02-11 06:00:00 NR -9.50 62.60
SI 09:00:00 NR -9.78 62.47
SI 12:00:00 NR -10.06 62.35
SI 15:00:00 NR -10.34 62.22
SI 18:00:00 NR -10.60 62.11
SI 21:00:00 NR -10.85 61.99
SI 1896-02-12 00:00:00 NR -11.09 61.89
SI 03:00:00 NR -11.31 61.79
SI 06:00:00 NR -11.50 61.70
SI 09:00:00 NR -11.67 61.62
SI 12:00:00 NR -11.82 61.55
SI 15:00:00 NR -11.95 61.49
SI 18:00:00 NR -12.07 61.43
SI 21:00:00 NR -12.18 61.38
SI 1896-02-13 00:00:00 NR -12.28 61.32
SI 03:00:00 NR -12.39 61.26
SI 06:00:00 NR -12.50 61.20
SI 09:00:00 NR -12.63 61.12
SI 12:00:00 NR -12.76 61.04
SI 15:00:00 NR -12.90 60.95
SI 18:00:00 NR -13.04 60.86
SI 21:00:00 NR -13.17 60.77
SI 1896-02-14 00:00:00 NR -13.31 60.68
SI 03:00:00 NR -13.46 60.59
SI 06:00:00 NR -13.60 60.50
SI 09:00:00 NR -13.75 60.41
SI 12:00:00 NR -13.90 60.33
SI 15:00:00 NR -14.05 60.24
SI 18:00:00 NR -14.21 60.16
SI 21:00:00 NR -14.36 60.07
SI 1896-02-15 00:00:00 NR -14.51 59.98
SI 03:00:00 NR -14.66 59.89
SI 06:00:00 NR -14.80 59.80
SI 09:00:00 NR -14.93 59.71
SI 12:00:00 NR -15.06 59.62
SI 15:00:00 NR -15.18 59.52
SI 18:00:00 NR -15.30 59.42
SI 21:00:00 NR -15.42 59.32
SI 1896-02-16 00:00:00 NR -15.54 59.22
SI 03:00:00 NR -15.67 59.11
SI 06:00:00 NR -15.80 59.00
SI 09:00:00 NR -15.94 58.88
SI 12:00:00 NR -16.08 58.75
SI 15:00:00 NR -16.23 58.62
SI 18:00:00 NR -16.38 58.49
SI 21:00:00 NR -16.53 58.36
SI 1896-02-17 00:00:00 NR -16.68 58.24
SI 03:00:00 NR -16.84 58.11
SI 06:00:00 NR -17.00 58.00
SI 09:00:00 NR -17.15 57.88
SI 12:00:00 NR -17.31 57.76
SI 15:00:00 NR -17.47 57.65
SI 18:00:00 NR -17.63 57.55
SI 21:00:00 NR -17.79 57.46
SI 1896-02-18 00:00:00 NR -17.96 57.39
SI 03:00:00 NR -18.13 57.34
SI 06:00:00 NR -18.30 57.30
SI 09:00:00 NR -18.47 57.28
SI 12:00:00 NR -18.65 57.27
SI 15:00:00 NR -18.83 57.29
SI 18:00:00 NR -19.01 57.32
SI 21:00:00 NR -19.20 57.37
SI 1896-02-19 00:00:00 NR -19.40 57.43
SI 03:00:00 NR -19.59 57.51
SI 06:00:00 NR -19.80 57.60
SI 09:00:00 NR -20.02 57.69
SI 12:00:00 NR -20.25 57.79
SI 15:00:00 NR -20.48 57.91
SI 18:00:00 NR -20.72 58.03
SI 21:00:00 NR -20.95 58.17
SI 1896-02-20 00:00:00 NR -21.17 58.31
SI 03:00:00 NR -21.39 58.45
SI 06:00:00 NR -21.60 58.60
SI 09:00:00 NR -21.79 58.75
SI 12:00:00 NR -21.98 58.90
SI 15:00:00 NR -22.15 59.05
SI 18:00:00 NR -22.31 59.20
SI 21:00:00 NR -22.46 59.35
SI 1896-02-21 00:00:00 NR -22.61 59.50
SI 03:00:00 NR -22.76 59.65
SI 06:00:00 NR -22.90 59.80

Source Information

Agency Information
USA
TOKYO
CMA
HKO
NEWDELHI
REUNION WMO-Best-Tracks.txt:Line=1752:xxxx896258
BOM
NADI
WELLINGTON
DS824
TD9636
TD9635
NEUMANN
MLC

All available IBTrACS Data

SEASON BASIN SUBBASIN ISO_TIME_________ NATURE LAT LON WMO AGENCY DIST2LAND LANDFALL IFLAG USA SSHS REUNION LAT REUNION LON REUNION TYPE REUNION TNUM STORM SPEED STORM DIR
Year degrees north degrees east km km 1 degrees north degrees east 1 kts degrees
1896 SI MM 1896-02-11 06:00:00 NR -9.50 62.60 reunion 1297 1262 _____O________ -1 -9.50 62.60 99 9.90 6 203
1896 SI MM 09:00:00 NR -9.78 62.47 1262 1237 _____P________ -1 -9.78 62.47 99 6 204
1896 SI MM 12:00:00 NR -10.06 62.35 1223 1198 _____P________ -1 -10.06 62.35 99 6 204
1896 SI MM 15:00:00 NR -10.34 62.22 1198 1163 _____P________ -1 -10.34 62.22 99 6 204
1896 SI MM 18:00:00 NR -10.60 62.11 1163 1138 _____P________ -1 -10.60 62.11 99 6 204
1896 SI MM 21:00:00 NR -10.85 61.99 1127 1103 _____P________ -1 -10.85 61.99 99 5 204
1896 SI MM 1896-02-12 00:00:00 NR -11.09 61.89 1103 1078 _____P________ -1 -11.09 61.89 99 5 204
1896 SI MM 03:00:00 NR -11.31 61.79 1078 1053 _____P________ -1 -11.31 61.79 99 5 204
1896 SI MM 06:00:00 NR -11.50 61.70 reunion 1053 1028 _____O________ -1 -11.50 61.70 99 9.90 4 204
1896 SI MM 09:00:00 NR -11.67 61.62 1028 1018 _____P________ -1 -11.67 61.62 99 4 204
1896 SI MM 12:00:00 NR -11.82 61.55 1018 1003 _____P________ -1 -11.82 61.55 99 3 204
1896 SI MM 15:00:00 NR -11.95 61.49 1003 978 _____P________ -1 -11.95 61.49 99 3 206
1896 SI MM 18:00:00 NR -12.07 61.43 978 968 _____P________ -1 -12.07 61.43 99 3 206
1896 SI MM 21:00:00 NR -12.18 61.38 968 953 _____P________ -1 -12.18 61.38 99 2 208
1896 SI MM 1896-02-13 00:00:00 NR -12.28 61.32 953 943 _____P________ -1 -12.28 61.32 99 2 208
1896 SI MM 03:00:00 NR -12.39 61.26 943 928 _____P________ -1 -12.39 61.26 99 2 209
1896 SI MM 06:00:00 NR -12.50 61.20 reunion 928 914 _____O________ -1 -12.50 61.20 99 9.90 3 209
1896 SI MM 09:00:00 NR -12.63 61.12 914 889 _____P________ -1 -12.63 61.12 99 3 211
1896 SI MM 12:00:00 NR -12.76 61.04 889 879 _____P________ -1 -12.76 61.04 99 3 212
1896 SI MM 15:00:00 NR -12.90 60.95 879 864 _____P________ -1 -12.90 60.95 99 3 212
1896 SI MM 18:00:00 NR -13.04 60.86 864 839 _____P________ -1 -13.04 60.86 99 3 212
1896 SI MM 21:00:00 NR -13.17 60.77 839 825 _____P________ -1 -13.17 60.77 99 3 213
1896 SI MM 1896-02-14 00:00:00 NR -13.31 60.68 825 810 _____P________ -1 -13.31 60.68 99 3 212
1896 SI MM 03:00:00 NR -13.46 60.59 800 786 _____P________ -1 -13.46 60.59 99 3 212
1896 SI MM 06:00:00 NR -13.60 60.50 reunion 786 771 _____O________ -1 -13.60 60.50 99 9.90 3 211
1896 SI MM 09:00:00 NR -13.75 60.41 771 746 _____P________ -1 -13.75 60.41 99 3 209
1896 SI MM 12:00:00 NR -13.90 60.33 746 732 _____P________ -1 -13.90 60.33 99 3 209
1896 SI MM 15:00:00 NR -14.05 60.24 722 711 _____P________ -1 -14.05 60.24 99 4 209
1896 SI MM 18:00:00 NR -14.21 60.16 711 686 _____P________ -1 -14.21 60.16 99 4 209
1896 SI MM 21:00:00 NR -14.36 60.07 686 672 _____P________ -1 -14.36 60.07 99 3 209
1896 SI MM 1896-02-15 00:00:00 NR -14.51 59.98 672 658 _____P________ -1 -14.51 59.98 99 3 210
1896 SI MM 03:00:00 NR -14.66 59.89 647 633 _____P________ -1 -14.66 59.89 99 3 212
1896 SI MM 06:00:00 NR -14.80 59.80 reunion 633 619 _____O________ -1 -14.80 59.80 99 9.90 3 213
1896 SI MM 09:00:00 NR -14.93 59.71 619 605 _____P________ -1 -14.93 59.71 99 3 215
1896 SI MM 12:00:00 NR -15.06 59.62 594 580 _____P________ -1 -15.06 59.62 99 3 216
1896 SI MM 15:00:00 NR -15.18 59.52 580 566 _____P________ -1 -15.18 59.52 99 3 217
1896 SI MM 18:00:00 NR -15.30 59.42 566 552 _____P________ -1 -15.30 59.42 99 3 218
1896 SI MM 21:00:00 NR -15.42 59.32 552 538 _____P________ -1 -15.42 59.32 99 3 219
1896 SI MM 1896-02-16 00:00:00 NR -15.54 59.22 538 514 _____P________ -1 -15.54 59.22 99 3 219
1896 SI MM 03:00:00 NR -15.67 59.11 514 500 _____P________ -1 -15.67 59.11 99 3 219
1896 SI MM 06:00:00 NR -15.80 59.00 reunion 500 486 _____O________ -1 -15.80 59.00 99 9.90 4 220
1896 SI MM 09:00:00 NR -15.94 58.88 486 462 _____P________ -1 -15.94 58.88 99 4 220
1896 SI MM 12:00:00 NR -16.08 58.75 462 446 _____P________ -1 -16.08 58.75 99 4 220
1896 SI MM 15:00:00 NR -16.23 58.62 446 422 _____P________ -1 -16.23 58.62 99 4 220
1896 SI MM 18:00:00 NR -16.38 58.49 422 409 _____P________ -1 -16.38 58.49 99 4 220
1896 SI MM 21:00:00 NR -16.53 58.36 409 384 _____P________ -1 -16.53 58.36 99 4 218
1896 SI MM 1896-02-17 00:00:00 NR -16.68 58.24 384 371 _____P________ -1 -16.68 58.24 99 4 217
1896 SI MM 03:00:00 NR -16.84 58.11 371 348 _____P________ -1 -16.84 58.11 99 4 216
1896 SI MM 06:00:00 NR -17.00 58.00 reunion 348 336 _____O________ -1 -17.00 58.00 99 9.90 4 215
1896 SI MM 09:00:00 NR -17.15 57.88 325 313 _____P________ -1 -17.15 57.88 99 4 216
1896 SI MM 12:00:00 NR -17.31 57.76 313 290 _____P________ -1 -17.31 57.76 99 4 215
1896 SI MM 15:00:00 NR -17.47 57.65 290 279 _____P________ -1 -17.47 57.65 99 4 213
1896 SI MM 18:00:00 NR -17.63 57.55 279 257 _____P________ -1 -17.63 57.55 99 4 209
1896 SI MM 21:00:00 NR -17.79 57.46 257 246 _____P________ -1 -17.79 57.46 99 4 205
1896 SI MM 1896-02-18 00:00:00 NR -17.96 57.39 235 223 _____P________ -1 -17.96 57.39 99 4 200
1896 SI MM 03:00:00 NR -18.13 57.34 224 202 _____P________ -1 -18.13 57.34 99 4 194
1896 SI MM 06:00:00 NR -18.30 57.30 reunion 202 180 _____O________ -1 -18.30 57.30 99 9.90 4 190
1896 SI MM 09:00:00 NR -18.47 57.28 180 169 _____P________ -1 -18.47 57.28 99 4 0
1896 SI MM 12:00:00 NR -18.65 57.27 169 146 _____P________ -1 -18.65 57.27 99 4 177
1896 SI MM 15:00:00 NR -18.83 57.29 146 124 _____P________ -1 -18.83 57.29 99 4 173
1896 SI MM 18:00:00 NR -19.01 57.32 124 101 _____P________ -1 -19.01 57.32 99 4 168
1896 SI MM 21:00:00 NR -19.20 57.37 101 78 _____P________ -1 -19.20 57.37 99 4 164
1896 SI MM 1896-02-19 00:00:00 NR -19.40 57.43 78 55 _____P________ -1 -19.40 57.43 99 4 161
1896 SI MM 03:00:00 NR -19.59 57.51 55 33 _____P________ -1 -19.59 57.51 99 4 158
1896 SI MM 06:00:00 NR -19.80 57.60 reunion 33 11 _____O________ -1 -19.80 57.60 99 9.90 5 158
1896 SI MM 09:00:00 NR -20.02 57.69 11 0 _____P________ -1 -20.02 57.69 99 5 158
1896 SI MM 12:00:00 NR -20.25 57.79 10 0 _____P________ -1 -20.25 57.79 99 5 156
1896 SI MM 15:00:00 NR -20.48 57.91 20 20 _____P________ -1 -20.48 57.91 99 5 154
1896 SI MM 18:00:00 NR -20.72 58.03 38 38 _____P________ -1 -20.72 58.03 99 5 153
1896 SI MM 21:00:00 NR -20.95 58.17 68 68 _____P________ -1 -20.95 58.17 99 5 151
1896 SI MM 1896-02-20 00:00:00 NR -21.17 58.31 100 100 _____P________ -1 -21.17 58.31 99 5 149
1896 SI MM 03:00:00 NR -21.39 58.45 130 130 _____P________ -1 -21.39 58.45 99 5 147
1896 SI MM 06:00:00 NR -21.60 58.60 reunion 154 154 _____O________ -1 -21.60 58.60 99 9.90 5 145
1896 SI MM 09:00:00 NR -21.79 58.75 178 178 _____P________ -1 -21.79 58.75 99 5 144
1896 SI MM 12:00:00 NR -21.98 58.90 208 208 _____P________ -1 -21.98 58.90 99 4 142
1896 SI MM 15:00:00 NR -22.15 59.05 223 223 _____P________ -1 -22.15 59.05 99 4 140
1896 SI MM 18:00:00 NR -22.31 59.20 254 254 _____P________ -1 -22.31 59.20 99 4 139
1896 SI MM 21:00:00 NR -22.46 59.35 278 278 _____P________ -1 -22.46 59.35 99 4 138
1896 SI MM 1896-02-21 00:00:00 NR -22.61 59.50 299 299 _____P________ -1 -22.61 59.50 99 4 137
1896 SI MM 03:00:00 NR -22.76 59.65 323 323 _____P________ -1 -22.76 59.65 99 4 136
1896 SI MM 06:00:00 NR -22.90 59.80 reunion 345 _____O________ -1 -22.90 59.80 99 9.90 4 136